createdAt,value
2022-12-24T00:01:44.200Z,10.40
2022-12-24T00:04:10.965Z,10.40
2022-12-24T00:06:37.830Z,10.40
2022-12-24T00:09:04.841Z,10.40
2022-12-24T00:11:31.657Z,10.30
2022-12-24T00:13:58.463Z,10.30
2022-12-24T00:16:25.504Z,10.30
2022-12-24T00:18:52.519Z,10.40
2022-12-24T00:21:19.389Z,10.40
2022-12-24T00:23:46.210Z,10.50
2022-12-24T00:26:14.085Z,10.50
2022-12-24T00:28:41.567Z,10.50
2022-12-24T00:31:14.142Z,10.60
2022-12-24T00:33:41.291Z,10.60
2022-12-24T00:36:09.528Z,10.60
2022-12-24T00:38:36.493Z,10.50
2022-12-24T00:41:04.966Z,10.50
2022-12-24T00:43:32.866Z,10.40
2022-12-24T00:46:00.496Z,10.40
2022-12-24T00:48:27.369Z,10.40
2022-12-24T00:50:54.307Z,10.40
2022-12-24T00:53:21.215Z,10.40
2022-12-24T00:55:48.030Z,10.40
2022-12-24T00:58:15.562Z,10.40
2022-12-24T01:00:42.355Z,10.50
2022-12-24T01:03:09.261Z,10.50
2022-12-24T01:05:36.185Z,10.50
2022-12-24T01:08:03.061Z,10.50
2022-12-24T01:10:29.899Z,10.50
2022-12-24T01:12:56.748Z,10.50
2022-12-24T01:15:23.562Z,10.40
2022-12-24T01:17:50.470Z,10.40
2022-12-24T01:20:17.788Z,10.30
2022-12-24T01:22:45.217Z,10.30
2022-12-24T01:25:12.348Z,10.30
2022-12-24T01:27:39.127Z,10.30
2022-12-24T01:30:07.612Z,10.20
2022-12-24T01:32:34.796Z,10.20
2022-12-24T01:35:01.633Z,10.20
2022-12-24T01:37:28.438Z,10.20
2022-12-24T01:40:15.188Z,10.20
2022-12-24T01:43:05.789Z,10.20
2022-12-24T01:46:07.146Z,10.20
2022-12-24T01:48:46.628Z,10.20
2022-12-24T01:51:25.853Z,10.10
2022-12-24T01:53:58.418Z,10.00
2022-12-24T01:56:27.095Z,10.10
2022-12-24T01:59:00.594Z,10.10
2022-12-24T02:01:27.488Z,10.20
2022-12-24T02:03:54.521Z,10.30
2022-12-24T02:06:23.122Z,10.30
2022-12-24T02:08:50.056Z,10.20
2022-12-24T02:11:20.752Z,10.30
2022-12-24T02:13:55.800Z,10.30
2022-12-24T02:16:59.599Z,10.20
2022-12-24T02:19:48.586Z,10.30
2022-12-24T02:22:21.905Z,10.40
2022-12-24T02:25:20.339Z,10.40
2022-12-24T02:27:53.122Z,10.30
2022-12-24T02:30:55.299Z,10.30
2022-12-24T02:34:13.456Z,10.30
2022-12-24T02:36:44.797Z,10.30
2022-12-24T02:39:19.156Z,10.30
2022-12-24T02:42:08.463Z,10.30
2022-12-24T02:44:44.002Z,10.30
2022-12-24T02:47:12.469Z,10.30
2022-12-24T02:49:39.469Z,10.30
2022-12-24T02:52:06.280Z,10.30
2022-12-24T02:54:33.689Z,10.40
2022-12-24T02:57:10.732Z,10.40
2022-12-24T03:00:02.386Z,10.40
2022-12-24T03:03:08.078Z,10.30
2022-12-24T03:06:19.710Z,10.30
2022-12-24T03:09:20.754Z,10.30
2022-12-24T03:12:08.176Z,10.30
2022-12-24T03:14:36.105Z,10.40
2022-12-24T03:17:04.112Z,10.30
2022-12-24T03:19:31.782Z,10.30
2022-12-24T03:22:02.223Z,10.30
2022-12-24T03:24:29.079Z,10.40
2022-12-24T03:26:56.327Z,10.40
2022-12-24T03:29:23.249Z,10.50
2022-12-24T03:31:53.457Z,10.50
2022-12-24T03:34:20.355Z,10.50
2022-12-24T03:36:48.414Z,10.50
2022-12-24T03:39:15.244Z,10.40
2022-12-24T03:41:42.042Z,10.40
2022-12-24T03:44:08.900Z,10.50
2022-12-24T03:46:35.822Z,10.40
2022-12-24T03:49:02.620Z,10.40
2022-12-24T03:51:29.572Z,10.40
2022-12-24T03:53:57.129Z,10.40
2022-12-24T03:56:24.805Z,10.50
2022-12-24T03:58:51.919Z,10.50
2022-12-24T04:01:19.047Z,10.40
2022-12-24T04:03:46.197Z,10.50
2022-12-24T04:06:16.036Z,10.50
2022-12-24T04:08:42.915Z,10.50
2022-12-24T04:11:12.975Z,10.40
2022-12-24T04:13:39.795Z,10.40
2022-12-24T04:16:10.092Z,10.40
2022-12-24T04:18:37.664Z,10.40
2022-12-24T04:21:05.228Z,10.50
2022-12-24T04:23:34.038Z,10.50
2022-12-24T04:26:02.317Z,10.40
2022-12-24T04:28:30.186Z,10.50
2022-12-24T04:31:01.163Z,10.50
2022-12-24T04:33:28.477Z,10.40
2022-12-24T04:35:57.325Z,10.40
2022-12-24T04:38:24.353Z,10.40
2022-12-24T04:41:06.117Z,10.40
2022-12-24T04:43:33.340Z,10.40
2022-12-24T04:46:10.724Z,10.40
2022-12-24T04:48:38.547Z,10.40
2022-12-24T04:51:06.620Z,10.40
2022-12-24T04:53:34.208Z,10.40
2022-12-24T04:56:01.675Z,10.40
2022-12-24T04:58:28.984Z,10.40
2022-12-24T05:00:56.028Z,10.30
2022-12-24T05:03:22.938Z,10.30
2022-12-24T05:05:49.760Z,10.30
2022-12-24T05:08:16.637Z,10.30
2022-12-24T05:10:43.494Z,10.30
2022-12-24T05:13:10.282Z,10.20
2022-12-24T05:15:37.089Z,10.30
2022-12-24T05:18:03.969Z,10.20
2022-12-24T05:20:30.804Z,10.20
2022-12-24T05:23:16.127Z,10.20
2022-12-24T05:26:01.597Z,10.20
2022-12-24T05:28:28.467Z,10.20
2022-12-24T05:30:55.355Z,10.20
2022-12-24T05:33:22.286Z,10.20
2022-12-24T05:35:51.068Z,10.20
2022-12-24T05:38:17.909Z,10.10
2022-12-24T05:40:44.727Z,10.10
2022-12-24T05:43:11.540Z,10.10
2022-12-24T05:45:38.350Z,10.10
2022-12-24T05:48:07.093Z,10.10
2022-12-24T05:50:34.744Z,10.10
2022-12-24T05:53:01.530Z,10.10
2022-12-24T05:55:28.326Z,10.10
2022-12-24T05:57:55.152Z,10.20
2022-12-24T06:00:22.018Z,10.20
2022-12-24T06:02:48.931Z,10.20
2022-12-24T06:05:15.927Z,10.30
2022-12-24T06:07:43.023Z,10.20
2022-12-24T06:10:10.298Z,10.20
2022-12-24T06:12:37.095Z,10.30
2022-12-24T06:15:05.847Z,10.20
2022-12-24T06:17:32.679Z,10.30
2022-12-24T06:19:59.566Z,10.20
2022-12-24T06:22:26.588Z,10.20
2022-12-24T06:24:53.387Z,10.10
2022-12-24T06:27:20.228Z,10.10
2022-12-24T06:29:47.010Z,10.10
2022-12-24T06:32:13.797Z,10.10
2022-12-24T06:34:40.630Z,10.00
2022-12-24T06:37:07.553Z,10.00
2022-12-24T06:39:34.376Z,10.00
2022-12-24T06:42:01.172Z,10.00
2022-12-24T06:44:28.042Z,10.00
2022-12-24T06:46:54.867Z,10.00
2022-12-24T06:49:21.737Z,10.00
2022-12-24T06:51:48.583Z,10.00
2022-12-24T06:54:15.410Z,10.00
2022-12-24T06:56:42.211Z,10.00
2022-12-24T06:59:09.072Z,10.00
2022-12-24T07:01:35.937Z,10.00
2022-12-24T07:04:02.864Z,10.00
2022-12-24T07:06:30.576Z,9.90
2022-12-24T07:08:57.764Z,9.90
2022-12-24T07:11:25.710Z,9.90
2022-12-24T07:13:52.822Z,9.90
2022-12-24T07:16:19.811Z,9.80
2022-12-24T07:18:46.723Z,9.80
2022-12-24T07:21:13.540Z,9.90
2022-12-24T07:23:40.448Z,9.80
2022-12-24T07:26:07.574Z,9.80
2022-12-24T07:28:34.409Z,9.80
2022-12-24T07:31:01.341Z,9.80
2022-12-24T07:33:28.246Z,9.70
2022-12-24T07:36:00.117Z,9.70
2022-12-24T07:38:27.583Z,9.70
2022-12-24T07:40:54.467Z,9.70
2022-12-24T07:43:21.306Z,9.60
2022-12-24T07:45:48.135Z,9.70
2022-12-24T07:48:14.954Z,9.70
2022-12-24T07:50:42.474Z,9.70
2022-12-24T07:53:09.258Z,9.60
2022-12-24T07:55:36.355Z,9.60
2022-12-24T07:58:03.276Z,9.60
2022-12-24T08:00:30.139Z,9.60
2022-12-24T08:02:57.063Z,9.60
2022-12-24T08:05:24.046Z,9.60
2022-12-24T08:07:50.865Z,9.50
2022-12-24T08:10:17.767Z,9.60
2022-12-24T08:12:45.683Z,9.60
2022-12-24T08:15:12.652Z,9.60
2022-12-24T08:17:39.487Z,9.60
2022-12-24T08:20:08.182Z,9.70
2022-12-24T08:22:35.083Z,9.60
2022-12-24T08:25:01.922Z,9.70
2022-12-24T08:27:28.763Z,9.70
2022-12-24T08:29:55.605Z,9.70
2022-12-24T08:32:22.377Z,9.80
2022-12-24T08:34:49.206Z,9.80
2022-12-24T08:37:16.001Z,9.90
2022-12-24T08:39:42.798Z,9.80
2022-12-24T08:42:09.628Z,9.80
2022-12-24T08:44:36.482Z,9.80
2022-12-24T08:47:03.300Z,9.80
2022-12-24T08:49:30.097Z,9.80
2022-12-24T08:51:58.634Z,9.80
2022-12-24T08:54:25.645Z,9.90
2022-12-24T08:56:52.509Z,9.90
2022-12-24T08:59:19.398Z,9.90
2022-12-24T09:01:46.298Z,9.90
2022-12-24T09:04:13.205Z,9.90
2022-12-24T09:06:40.039Z,10.00
2022-12-24T09:09:07.386Z,10.00
2022-12-24T09:11:35.489Z,10.10
2022-12-24T09:14:02.418Z,10.10
2022-12-24T09:16:29.359Z,10.10
2022-12-24T09:18:57.692Z,10.20
2022-12-24T09:21:24.555Z,10.30
2022-12-24T09:23:51.420Z,10.50
2022-12-24T09:26:29.830Z,10.70
2022-12-24T09:28:57.904Z,10.80
2022-12-24T09:31:24.840Z,10.90
2022-12-24T09:33:52.077Z,10.90
2022-12-24T09:36:19.734Z,10.80
2022-12-24T09:38:47.311Z,10.60
2022-12-24T09:41:16.470Z,10.60
2022-12-24T09:43:49.212Z,10.40
2022-12-24T09:46:27.624Z,10.40
2022-12-24T09:49:08.794Z,10.30
2022-12-24T09:51:41.978Z,10.30
2022-12-24T09:54:19.658Z,10.30
2022-12-24T09:56:48.573Z,10.30
2022-12-24T09:59:21.624Z,10.30
2022-12-24T10:01:50.956Z,10.30
2022-12-24T10:04:20.384Z,10.20
2022-12-24T10:07:05.462Z,10.30
2022-12-24T10:09:46.719Z,10.20
2022-12-24T10:12:37.111Z,10.30
2022-12-24T10:15:24.442Z,10.40
2022-12-24T10:18:17.100Z,10.60
2022-12-24T10:21:02.732Z,10.70
2022-12-24T10:23:54.083Z,10.90
2022-12-24T10:26:30.577Z,11.10
2022-12-24T10:29:01.815Z,11.10
2022-12-24T10:31:53.656Z,11.10
2022-12-24T10:34:24.608Z,11.00
2022-12-24T10:36:51.786Z,10.80
2022-12-24T10:39:24.480Z,10.70
2022-12-24T10:41:57.931Z,10.60
2022-12-24T10:44:28.826Z,10.60
2022-12-24T10:46:56.091Z,10.60
2022-12-24T10:49:44.094Z,10.60
2022-12-24T10:52:17.683Z,10.60
2022-12-24T10:55:08.589Z,10.90
2022-12-24T10:57:35.693Z,11.10
2022-12-24T11:00:03.542Z,11.40
2022-12-24T11:02:37.789Z,11.60
2022-12-24T11:05:26.839Z,12.40
2022-12-24T11:08:03.892Z,13.40
2022-12-24T11:10:31.786Z,14.30
2022-12-24T11:13:27.769Z,15.00
2022-12-24T11:15:45.835Z,15.50
2022-12-24T11:18:16.244Z,15.50
2022-12-24T11:20:51.047Z,16.00
2022-12-24T11:23:18.051Z,16.50
2022-12-24T11:25:51.083Z,16.30
2022-12-24T11:28:33.509Z,16.40
2022-12-24T11:31:06.859Z,16.40
2022-12-24T11:33:47.200Z,16.40
2022-12-24T11:36:14.335Z,16.00
2022-12-24T11:38:41.116Z,15.30
2022-12-24T11:41:12.410Z,14.80
2022-12-24T11:43:46.409Z,14.90
2022-12-24T11:46:16.298Z,14.80
2022-12-24T11:48:43.744Z,14.40
2022-12-24T11:51:26.189Z,14.80
2022-12-24T11:54:04.578Z,15.20
2022-12-24T11:56:53.746Z,14.90
2022-12-24T11:59:40.838Z,15.20
2022-12-24T12:02:16.572Z,15.80
2022-12-24T12:04:46.647Z,15.30
2022-12-24T12:07:25.601Z,14.50
2022-12-24T12:10:05.214Z,13.80
2022-12-24T12:12:36.822Z,13.20
2022-12-24T12:15:11.188Z,12.90
2022-12-24T12:17:50.429Z,12.60
2022-12-24T12:20:21.591Z,12.30
2022-12-24T12:23:03.880Z,12.30
2022-12-24T12:25:42.141Z,12.30
2022-12-24T12:28:20.795Z,12.10
2022-12-24T12:30:57.884Z,12.10
2022-12-24T12:33:44.287Z,12.10
2022-12-24T12:36:14.221Z,12.10
2022-12-24T12:38:41.095Z,12.10
2022-12-24T12:41:30.977Z,11.90
2022-12-24T12:44:06.686Z,12.00
2022-12-24T12:46:45.521Z,11.90
2022-12-24T12:49:30.532Z,12.20
2022-12-24T12:52:22.572Z,12.80
2022-12-24T12:55:07.492Z,13.30
2022-12-24T12:57:37.740Z,13.10
2022-12-24T13:00:08.207Z,12.80
2022-12-24T13:02:44.872Z,12.80
2022-12-24T13:05:50.034Z,12.40
2022-12-24T13:08:38.010Z,12.30
2022-12-24T13:11:16.117Z,12.30
2022-12-24T13:13:56.415Z,12.30
2022-12-24T13:16:49.282Z,12.60
2022-12-24T13:19:38.230Z,13.20
2022-12-24T13:22:05.818Z,13.90
2022-12-24T13:24:33.775Z,14.40
2022-12-24T13:27:05.951Z,14.50
2022-12-24T13:29:36.033Z,14.70
2022-12-24T13:32:40.155Z,14.90
2022-12-24T13:35:18.834Z,14.70
2022-12-24T13:37:45.940Z,14.00
2022-12-24T13:40:12.756Z,13.70
2022-12-24T13:42:58.893Z,13.20
2022-12-24T13:45:41.532Z,12.60
2022-12-24T13:48:11.354Z,12.20
2022-12-24T13:50:43.401Z,11.90
2022-12-24T13:53:45.738Z,12.10
2022-12-24T13:56:18.170Z,12.30
2022-12-24T13:58:51.338Z,12.30
2022-12-24T14:01:33.311Z,12.30
2022-12-24T14:04:02.539Z,12.10
2022-12-24T14:06:36.524Z,11.70
2022-12-24T14:09:11.173Z,11.50
2022-12-24T14:11:59.829Z,11.20
2022-12-24T14:14:29.800Z,11.00
2022-12-24T14:17:05.976Z,10.90
2022-12-24T14:19:42.280Z,10.70
2022-12-24T14:22:12.134Z,10.80
2022-12-24T14:24:43.248Z,11.30
2022-12-24T14:27:18.923Z,11.60
2022-12-24T14:29:52.711Z,11.50
2022-12-24T14:32:19.676Z,11.40
2022-12-24T14:34:46.538Z,11.20
2022-12-24T14:37:14.260Z,11.20
2022-12-24T14:39:48.636Z,11.10
2022-12-24T14:42:39.591Z,11.00
2022-12-24T14:45:24.411Z,10.80
2022-12-24T14:48:04.098Z,10.60
2022-12-24T14:50:50.406Z,10.40
2022-12-24T14:53:22.961Z,10.20
2022-12-24T14:55:50.937Z,10.00
2022-12-24T14:58:53.339Z,9.90
2022-12-24T15:01:24.467Z,9.70
2022-12-24T15:04:10.733Z,9.60
2022-12-24T15:06:41.510Z,9.50
2022-12-24T15:09:25.719Z,9.40
2022-12-24T15:11:55.620Z,9.30
2022-12-24T15:14:26.124Z,9.20
2022-12-24T15:16:57.133Z,9.10
2022-12-24T15:19:24.014Z,9.10
2022-12-24T15:21:51.286Z,9.00
2022-12-24T15:24:46.428Z,9.00
2022-12-24T15:27:19.468Z,8.90
2022-12-24T15:29:49.338Z,8.80
2022-12-24T15:32:18.986Z,8.80
2022-12-24T15:34:51.462Z,8.70
2022-12-24T15:37:27.136Z,8.70
2022-12-24T15:40:10.085Z,8.60
2022-12-24T15:42:41.583Z,8.60
2022-12-24T15:45:27.828Z,8.60
2022-12-24T15:48:06.909Z,8.50
2022-12-24T15:50:43.461Z,8.50
2022-12-24T15:53:25.843Z,8.60
2022-12-24T15:56:02.546Z,8.50
2022-12-24T15:58:33.370Z,8.50
2022-12-24T16:01:24.961Z,8.50
2022-12-24T16:03:51.866Z,8.50
2022-12-24T16:06:19.443Z,8.50
2022-12-24T16:08:47.263Z,8.50
2022-12-24T16:11:16.097Z,8.50
2022-12-24T16:13:59.284Z,8.50
2022-12-24T16:16:38.930Z,8.50
2022-12-24T16:19:08.414Z,8.50
2022-12-24T16:21:40.972Z,8.50
2022-12-24T16:24:28.416Z,8.40
2022-12-24T16:26:56.006Z,8.50
2022-12-24T16:29:22.898Z,8.50
2022-12-24T16:31:54.232Z,8.40
2022-12-24T16:34:28.014Z,8.40
2022-12-24T16:36:55.828Z,8.40
2022-12-24T16:39:25.858Z,8.40
2022-12-24T16:42:13.185Z,8.30
2022-12-24T16:44:40.675Z,8.30
2022-12-24T16:47:12.316Z,8.30
2022-12-24T16:49:39.393Z,8.30
2022-12-24T16:52:07.730Z,8.30
2022-12-24T16:54:34.509Z,8.20
2022-12-24T16:57:01.318Z,8.20
2022-12-24T16:59:28.093Z,8.20
2022-12-24T17:01:55.040Z,8.20
2022-12-24T17:04:21.856Z,8.20
2022-12-24T17:06:50.656Z,8.30
2022-12-24T17:09:17.891Z,8.30
2022-12-24T17:11:44.747Z,8.30
2022-12-24T17:14:19.726Z,8.30
2022-12-24T17:16:47.326Z,8.40
2022-12-24T17:19:14.223Z,8.40
2022-12-24T17:21:41.059Z,8.40
2022-12-24T17:24:08.866Z,8.30
2022-12-24T17:26:37.067Z,8.30
2022-12-24T17:29:05.312Z,8.30
2022-12-24T17:31:33.243Z,8.30
2022-12-24T17:34:00.551Z,8.30
2022-12-24T17:36:27.624Z,8.40
2022-12-24T17:38:54.389Z,8.40
2022-12-24T17:41:21.606Z,8.40
2022-12-24T17:43:48.686Z,8.40
2022-12-24T17:46:24.538Z,8.40
2022-12-24T17:48:52.356Z,8.40
2022-12-24T17:51:22.238Z,8.40
2022-12-24T17:53:49.589Z,8.40
2022-12-24T17:56:17.707Z,8.50
2022-12-24T17:58:45.892Z,8.40
2022-12-24T18:01:21.996Z,8.40
2022-12-24T18:03:50.840Z,8.50
2022-12-24T18:06:19.250Z,8.50
2022-12-24T18:08:47.068Z,8.40
2022-12-24T18:11:33.765Z,8.40
2022-12-24T18:14:02.441Z,8.40
2022-12-24T18:16:37.729Z,8.40
2022-12-24T18:19:06.272Z,8.40
2022-12-24T18:21:33.677Z,8.40
2022-12-24T18:24:00.991Z,8.40
2022-12-24T18:26:30.090Z,8.40
2022-12-24T18:28:58.853Z,8.50
2022-12-24T18:31:26.960Z,8.50
2022-12-24T18:33:55.974Z,8.50
2022-12-24T18:36:23.618Z,8.50
2022-12-24T18:38:50.936Z,8.40
2022-12-24T18:41:23.955Z,8.40
2022-12-24T18:43:50.921Z,8.40
2022-12-24T18:46:20.734Z,8.40
2022-12-24T18:48:47.720Z,8.40
2022-12-24T18:51:16.106Z,8.40
2022-12-24T18:53:43.572Z,8.40
2022-12-24T18:56:21.775Z,8.40
2022-12-24T18:58:49.486Z,8.30
2022-12-24T19:01:19.084Z,8.30
2022-12-24T19:03:46.969Z,8.30
2022-12-24T19:06:14.042Z,8.30
2022-12-24T19:08:58.360Z,8.30
2022-12-24T19:11:28.251Z,8.30
2022-12-24T19:13:55.151Z,8.30
2022-12-24T19:16:22.892Z,8.20
2022-12-24T19:18:50.030Z,8.20
2022-12-24T19:21:18.439Z,8.20
2022-12-24T19:23:46.368Z,8.20
2022-12-24T19:26:15.017Z,8.20
2022-12-24T19:28:42.590Z,8.20
2022-12-24T19:31:14.483Z,8.20
2022-12-24T19:33:44.084Z,8.20
2022-12-24T19:36:13.975Z,8.20
2022-12-24T19:38:41.229Z,8.20
2022-12-24T19:41:14.181Z,8.20
2022-12-24T19:43:42.983Z,8.20
2022-12-24T19:46:12.637Z,8.10
2022-12-24T19:48:39.689Z,8.10
2022-12-24T19:51:09.215Z,8.10
2022-12-24T19:53:36.872Z,8.10
2022-12-24T19:56:04.559Z,8.10
2022-12-24T19:58:32.772Z,8.10
2022-12-24T20:01:15.561Z,8.10
2022-12-24T20:03:44.117Z,8.00
2022-12-24T20:06:11.651Z,8.00
2022-12-24T20:08:39.414Z,8.00
2022-12-24T20:11:08.969Z,8.00
2022-12-24T20:13:37.488Z,8.00
2022-12-24T20:16:15.381Z,8.00
2022-12-24T20:18:42.455Z,8.00
2022-12-24T20:21:11.721Z,8.00
2022-12-24T20:23:40.090Z,8.00
2022-12-24T20:26:10.209Z,8.00
2022-12-24T20:28:39.157Z,8.10
2022-12-24T20:31:18.216Z,8.10
2022-12-24T20:33:45.486Z,8.10
2022-12-24T20:36:14.343Z,8.10
2022-12-24T20:38:41.442Z,8.10
2022-12-24T20:41:10.974Z,8.10
2022-12-24T20:43:45.116Z,8.10
2022-12-24T20:46:14.417Z,8.10
2022-12-24T20:48:41.845Z,8.10
2022-12-24T20:51:16.101Z,8.10
2022-12-24T20:53:48.325Z,8.10
2022-12-24T20:56:17.202Z,8.10
2022-12-24T20:58:45.306Z,8.10
2022-12-24T21:01:24.783Z,8.00
2022-12-24T21:03:53.411Z,8.10
2022-12-24T21:06:20.787Z,8.10
2022-12-24T21:08:49.675Z,8.10
2022-12-24T21:11:35.646Z,8.10
2022-12-24T21:14:03.036Z,8.10
2022-12-24T21:16:31.699Z,8.10
2022-12-24T21:18:58.917Z,8.10
2022-12-24T21:21:25.744Z,8.10
2022-12-24T21:23:52.768Z,8.10
2022-12-24T21:26:19.586Z,8.10
2022-12-24T21:28:46.473Z,8.10
2022-12-24T21:31:14.287Z,8.10
2022-12-24T21:33:41.195Z,8.00
2022-12-24T21:36:09.800Z,8.10
2022-12-24T21:38:36.641Z,8.10
2022-12-24T21:41:15.777Z,8.10
2022-12-24T21:43:44.203Z,8.10
2022-12-24T21:46:15.791Z,8.10
2022-12-24T21:49:01.152Z,8.10
2022-12-24T21:51:28.652Z,8.10
2022-12-24T21:54:14.881Z,8.10
2022-12-24T21:57:17.950Z,8.10
2022-12-24T21:59:45.595Z,8.10
2022-12-24T22:02:14.435Z,8.10
2022-12-24T22:04:42.018Z,8.10
2022-12-24T22:07:38.933Z,8.10
2022-12-24T22:10:25.662Z,8.10
2022-12-24T22:12:53.629Z,8.10
2022-12-24T22:15:20.617Z,8.10
2022-12-24T22:17:47.557Z,8.00
2022-12-24T22:20:14.471Z,8.00
2022-12-24T22:22:41.402Z,8.00
2022-12-24T22:25:08.615Z,8.00
2022-12-24T22:27:35.467Z,8.00
2022-12-24T22:30:02.248Z,8.00
2022-12-24T22:32:29.150Z,8.00
2022-12-24T22:34:55.976Z,8.00
2022-12-24T22:37:22.817Z,8.00
2022-12-24T22:39:49.612Z,8.00
2022-12-24T22:42:17.519Z,8.00
2022-12-24T22:44:44.290Z,8.00
2022-12-24T22:47:11.138Z,8.00
2022-12-24T22:49:38.030Z,8.00
2022-12-24T22:52:04.958Z,8.00
2022-12-24T22:54:32.273Z,7.90
2022-12-24T22:56:59.241Z,8.00
2022-12-24T22:59:26.067Z,8.00
2022-12-24T23:01:53.841Z,8.00
2022-12-24T23:04:20.829Z,8.00
2022-12-24T23:06:47.918Z,7.90
2022-12-24T23:09:16.054Z,7.90
2022-12-24T23:11:44.260Z,7.90
2022-12-24T23:14:39.767Z,7.90
2022-12-24T23:17:07.424Z,8.00
2022-12-24T23:19:34.311Z,7.90
2022-12-24T23:22:02.220Z,7.90
2022-12-24T23:24:29.631Z,7.90
2022-12-24T23:26:57.581Z,7.90
2022-12-24T23:29:24.609Z,7.90
2022-12-24T23:31:51.447Z,7.90
2022-12-24T23:34:18.285Z,7.90
2022-12-24T23:36:45.089Z,8.00
2022-12-24T23:39:12.021Z,8.00
2022-12-24T23:41:38.823Z,8.00
2022-12-24T23:44:05.959Z,8.00
2022-12-24T23:46:32.872Z,8.00
2022-12-24T23:48:59.697Z,8.00
2022-12-24T23:51:28.538Z,8.00
2022-12-24T23:53:56.725Z,8.00
2022-12-24T23:56:25.066Z,8.00
2022-12-24T23:58:52.040Z,8.00
